Time;durP1;ratioP1;P1;durP2;ratioP2;P2;SDS_P1;SDS_P2;PMS_P1;PMS_P2;Temp;Humidity;BMP_temperature;BMP_pressure;BME280_temperature;BME280_humidity;BME280_pressure;Samples;Min_cycle;Max_cycle;Signal;HPM_P1;HPM_P2
2021/09/14 00:02:21;;;;;;;21.05;19.05;;;;;;;21.93;55.38;95428.41;5028729;28;20383;-74
2021/09/14 00:04:46;;;;;;;23.75;21.40;;;;;;;21.76;55.72;95407.31;5031798;28;20065;-73
2021/09/14 00:07:12;;;;;;;22.95;20.70;;;;;;;21.87;55.83;95437.25;5029423;28;20627;-74
2021/09/14 00:09:38;;;;;;;22.67;20.48;;;;;;;21.84;56.54;95448.78;5011411;28;20671;-76
2021/09/14 00:12:04;;;;;;;23.88;21.25;;;;;;;21.95;56.25;95455.13;5012119;28;20433;-75
2021/09/14 00:14:30;;;;;;;24.30;21.77;;;;;;;21.85;56.04;95432.16;5011888;28;20034;-74
2021/09/14 00:16:55;;;;;;;22.83;20.67;;;;;;;21.95;55.87;95445.06;5011336;28;20029;-77
2021/09/14 00:19:20;;;;;;;21.48;19.23;;;;;;;21.90;56.03;95436.47;5013601;28;20036;-75
2021/09/14 00:21:46;;;;;;;19.77;17.83;;;;;;;21.92;55.93;95439.63;5011995;28;20036;-76
2021/09/14 00:24:11;;;;;;;22.58;20.42;;;;;;;21.82;55.83;95424.03;5029686;28;20037;-75
2021/09/14 00:26:37;;;;;;;18.20;16.67;;;;;;;21.83;55.97;95429.06;5011664;28;20081;-75
2021/09/14 00:29:02;;;;;;;19.92;18.05;;;;;;;21.97;55.75;95442.78;5011253;28;20033;-75
2021/09/14 00:31:29;;;;;;;26.15;20.60;;;;;;;21.94;55.85;95438.09;5013844;28;20521;-75
2021/09/14 00:33:54;;;;;;;21.95;20.05;;;;;;;21.74;55.87;95415.03;5028627;28;20043;-75
2021/09/14 00:36:19;;;;;;;23.73;21.42;;;;;;;21.80;55.67;95427.88;5011603;28;20049;-75
2021/09/14 00:38:45;;;;;;;18.55;17.00;;;;;;;21.83;55.78;95428.28;5029000;28;20075;-75
2021/09/14 00:41:11;;;;;;;18.92;17.23;;;;;;;21.85;55.81;95436.81;5029249;28;20548;-75
2021/09/14 00:43:37;;;;;;;17.58;16.15;;;;;;;21.68;55.94;95403.75;5013445;28;20053;-76
2021/09/14 00:46:02;;;;;;;18.73;17.13;;;;;;;21.86;55.96;95436.47;5011586;28;20041;-75
2021/09/14 00:48:28;;;;;;;17.55;15.90;;;;;;;21.73;55.86;95411.53;5028624;28;20041;-75
2021/09/14 00:50:53;;;;;;;21.65;19.50;;;;;;;21.88;55.94;95441.50;5011069;28;20037;-75
2021/09/14 00:53:19;;;;;;;22.60;19.80;;;;;;;21.82;55.80;95429.44;5029079;28;20049;-74
2021/09/14 00:55:45;;;;;;;21.35;19.35;;;;;;;21.85;55.76;95420.56;5031152;28;20033;-75
2021/09/14 00:58:11;;;;;;;26.20;23.60;;;;;;;21.78;55.91;95419.34;5028898;28;20049;-75
2021/09/14 01:00:36;;;;;;;19.35;17.60;;;;;;;21.78;55.59;95426.69;5028292;28;20080;-75
2021/09/14 01:03:02;;;;;;;23.10;20.58;;;;;;;21.81;55.65;95434.06;5009797;28;20090;-76
2021/09/14 01:05:27;;;;;;;22.73;20.52;;;;;;;21.79;55.47;95420.88;5028030;28;20045;-75
2021/09/14 01:07:53;;;;;;;19.58;17.75;;;;;;;21.85;55.37;95417.84;5029965;28;20131;-76
2021/09/14 01:10:19;;;;;;;23.25;21.00;;;;;;;21.67;55.52;95394.06;5028010;28;20038;-76
2021/09/14 01:12:46;;;;;;;21.15;18.88;;;;;;;21.89;55.29;95413.25;5028659;28;20044;-75
2021/09/14 01:15:11;;;;;;;18.17;16.48;;;;;;;21.71;55.17;95392.19;5029017;28;20618;-75
2021/09/14 01:17:37;;;;;;;22.05;20.08;;;;;;;21.77;55.57;95423.19;5028648;28;20136;-75
2021/09/14 01:20:04;;;;;;;20.13;18.17;;;;;;;21.77;55.44;95417.78;5028155;28;20488;-75
2021/09/14 01:22:30;;;;;;;21.38;19.40;;;;;;;21.75;55.44;95409.25;5030830;28;20034;-75
2021/09/14 01:24:56;;;;;;;19.80;18.00;;;;;;;21.62;55.18;95396.31;5028869;28;20030;-75
2021/09/14 01:27:22;;;;;;;16.45;15.05;;;;;;;21.59;55.25;95397.81;5029222;28;20029;-74
2021/09/14 01:32:31;;;;;;;21.67;19.52;;;;;;;21.49;55.54;95380.31;5028137;28;20056;-75
2021/09/14 01:35:25;;;;;;;21.98;19.95;;;;;;;21.70;55.34;95412.28;5011079;28;20018;-76
2021/09/14 01:37:51;;;;;;;20.33;18.42;;;;;;;21.70;55.55;95415.00;5012797;28;20379;-75
2021/09/14 01:40:18;;;;;;;28.02;22.58;;;;;;;21.51;55.23;95386.16;5027923;28;20033;-75
2021/09/14 01:42:44;;;;;;;21.05;18.75;;;;;;;21.51;55.25;95390.78;5028338;28;20075;-75
2021/09/14 01:45:11;;;;;;;19.55;17.52;;;;;;;21.68;55.56;95405.66;5010629;28;20034;-75
2021/09/14 01:47:36;;;;;;;16.58;15.25;;;;;;;21.46;55.27;95383.75;5010109;28;20047;-75
2021/09/14 01:50:05;;;;;;;19.33;17.50;;;;;;;21.44;55.34;95385.25;5027759;28;20018;-75
2021/09/14 01:52:31;;;;;;;22.27;19.98;;;;;;;21.59;55.39;95411.34;5030310;28;20018;-75
2021/09/14 01:54:57;;;;;;;22.88;20.48;;;;;;;21.53;55.28;95407.41;5010469;28;20060;-74
2021/09/14 01:57:30;;;;;;;21.05;19.17;;;;;;;21.35;55.47;95390.97;5028209;28;20399;-75
2021/09/14 01:59:57;;;;;;;17.95;16.17;;;;;;;21.30;55.53;95388.59;5028035;28;20087;-75
2021/09/14 02:02:37;;;;;;;18.92;16.98;;;;;;;21.38;55.50;95398.34;5010166;28;20068;-75
2021/09/14 02:05:17;;;;;;;24.23;21.75;;;;;;;21.40;55.31;95398.75;5010237;28;20025;-74
2021/09/14 02:58:45;;;;;;;22.27;20.23;;;;;;;21.50;55.15;95416.28;5031284;28;20052;-75
2021/09/14 03:01:14;;;;;;;23.63;21.27;;;;;;;21.52;55.27;95419.41;5013216;28;20038;-75
2021/09/14 03:03:43;;;;;;;23.05;20.67;;;;;;;21.50;55.13;95419.00;5030118;28;20461;-74
2021/09/14 03:06:10;;;;;;;17.65;16.15;;;;;;;21.28;55.08;95388.13;5030598;28;20041;-74
2021/09/14 03:08:36;;;;;;;17.23;15.57;;;;;;;21.38;55.12;95408.38;5012849;28;20574;-75
2021/09/14 03:11:11;;;;;;;24.38;21.23;;;;;;;21.36;55.11;95408.75;5012467;28;20029;-75
2021/09/14 03:13:37;;;;;;;26.58;22.13;;;;;;;21.24;55.01;95403.53;5032798;28;20076;-75
2021/09/14 03:16:07;;;;;;;25.25;22.58;;;;;;;21.31;54.98;95417.19;5030377;28;20037;-75
2021/09/14 03:18:33;;;;;;;26.48;23.02;;;;;;;21.26;54.94;95420.97;5029702;28;20034;-77
2021/09/14 03:20:58;;;;;;;20.13;18.33;;;;;;;21.11;54.99;95385.97;5029964;28;20029;-74
2021/09/14 03:23:24;;;;;;;23.52;21.17;;;;;;;21.13;55.18;95406.06;5030434;28;20553;-74
2021/09/14 03:25:50;;;;;;;18.85;17.33;;;;;;;21.13;55.48;95399.88;5032608;28;20022;-75
2021/09/14 03:28:16;;;;;;;19.42;17.45;;;;;;;20.77;55.38;95351.47;5030487;28;20045;-75
2021/09/14 03:30:42;;;;;;;20.40;18.52;;;;;;;21.03;55.19;95382.34;5029249;28;20049;-73
2021/09/14 03:33:09;;;;;;;27.63;23.90;;;;;;;21.00;55.23;95385.81;5029878;28;20076;-74
2021/09/14 03:35:34;;;;;;;23.95;21.45;;;;;;;20.97;55.20;95391.94;5012552;28;20033;-75
2021/09/14 03:38:00;;;;;;;19.80;17.98;;;;;;;21.03;55.15;95393.19;5029059;28;20052;-74
2021/09/14 03:40:25;;;;;;;21.42;19.27;;;;;;;21.01;55.29;95390.06;5031833;28;20021;-73
2021/09/14 03:42:50;;;;;;;28.00;22.58;;;;;;;20.92;55.16;95390.31;5012339;28;20033;-75
2021/09/14 03:45:16;;;;;;;21.63;19.63;;;;;;;20.93;55.08;95386.47;5029721;28;20064;-74
2021/09/14 03:47:41;;;;;;;19.48;17.67;;;;;;;20.87;55.32;95381.75;5029937;28;20077;-75
2021/09/14 03:50:07;;;;;;;23.63;20.67;;;;;;;20.75;55.24;95370.00;5028610;28;20021;-75
2021/09/14 03:52:33;;;;;;;24.83;22.10;;;;;;;20.90;55.24;95394.53;5031657;28;20022;-75
2021/09/14 03:54:58;;;;;;;22.25;20.00;;;;;;;20.90;55.32;95399.94;5029607;28;20080;-75
2021/09/14 03:57:24;;;;;;;22.40;20.25;;;;;;;20.83;55.35;95380.91;5011976;28;20212;-74
2021/09/14 03:59:49;;;;;;;19.90;17.95;;;;;;;20.84;55.16;95385.97;5029629;28;20096;-75
2021/09/14 04:05:05;;;;;;;27.88;23.05;;;;;;;20.82;55.20;95379.34;5031144;28;20032;-75
2021/09/14 04:10:16;;;;;;;20.85;18.88;;;;;;;20.72;55.23;95384.22;5028199;28;20132;-75
2021/09/14 04:12:41;;;;;;;24.33;21.83;;;;;;;20.70;54.96;95372.22;5011450;28;20116;-75
2021/09/14 04:15:07;;;;;;;20.88;18.67;;;;;;;20.65;55.12;95376.03;5011672;28;20092;-75
2021/09/14 04:17:32;;;;;;;24.23;21.33;;;;;;;20.54;55.31;95364.25;5029259;28;20037;-74
2021/09/14 04:19:58;;;;;;;23.17;20.70;;;;;;;20.65;55.10;95378.72;5009023;28;20032;-76
2021/09/14 04:22:23;;;;;;;22.50;20.30;;;;;;;20.65;55.08;95391.47;5013340;28;20703;-74
2021/09/14 04:24:49;;;;;;;20.45;18.17;;;;;;;20.63;55.19;95381.00;5011633;28;20033;-75
2021/09/14 04:27:14;;;;;;;17.65;16.35;;;;;;;20.63;55.31;95378.31;5029005;28;20077;-75
2021/09/14 04:29:39;;;;;;;21.27;19.00;;;;;;;20.66;55.17;95393.00;5011148;28;20183;-74
2021/09/14 04:32:05;;;;;;;17.92;16.17;;;;;;;20.57;55.12;95374.34;5029112;28;20108;-74
2021/09/14 04:34:30;;;;;;;19.38;17.48;;;;;;;20.56;55.09;95367.38;5030366;28;20037;-75
2021/09/14 04:36:56;;;;;;;22.48;20.13;;;;;;;20.58;55.18;95375.91;5028922;28;20149;-75
2021/09/14 04:39:21;;;;;;;21.63;19.50;;;;;;;20.55;55.05;95381.25;5028422;28;20487;-74
2021/09/14 04:41:47;;;;;;;19.70;17.83;;;;;;;20.51;54.96;95383.88;5010736;28;20387;-75
2021/09/14 04:44:12;;;;;;;16.50;15.20;;;;;;;20.56;55.11;95396.31;5010790;28;20034;-75
2021/09/14 04:46:38;;;;;;;19.48;17.88;;;;;;;20.53;54.93;95387.03;5030734;28;20471;-74
2021/09/14 04:49:04;;;;;;;20.83;18.83;;;;;;;20.57;54.85;95382.44;5027455;28;20104;-75
2021/09/14 04:51:30;;;;;;;20.63;18.73;;;;;;;20.58;54.80;95400.25;5010743;28;20588;-75
2021/09/14 04:53:55;;;;;;;24.48;20.15;;;;;;;20.50;54.82;95383.13;5028904;28;20049;-75
2021/09/14 04:56:20;;;;;;;22.30;19.98;;;;;;;20.45;55.02;95380.69;5010798;28;20063;-74
2021/09/14 04:58:52;;;;;;;17.38;14.32;;;;;;;20.56;54.81;95386.28;5030905;28;20029;-78
2021/09/14 05:01:18;;;;;;;16.50;14.85;;;;;;;20.54;54.96;95380.47;5030076;28;20037;-83
2021/09/14 05:03:44;;;;;;;15.25;13.90;;;;;;;20.63;55.02;95381.00;5005636;28;20034;-71
2021/09/14 05:06:09;;;;;;;20.73;14.70;;;;;;;20.66;55.00;95377.56;5007534;28;20026;-72
2021/09/14 05:08:35;;;;;;;15.13;13.73;;;;;;;20.67;54.94;95372.94;5028902;28;20573;-78
2021/09/14 05:11:01;;;;;;;20.88;16.40;;;;;;;20.79;54.81;95380.88;5011406;28;20527;-75
2021/09/14 05:13:27;;;;;;;15.82;14.23;;;;;;;20.83;54.81;95372.78;5031171;28;20212;-71
2021/09/14 05:15:53;;;;;;;13.68;12.52;;;;;;;20.81;54.88;95365.06;5028769;28;20029;-79
2021/09/14 05:18:18;;;;;;;17.13;15.57;;;;;;;21.07;54.48;95383.19;5027009;28;20052;-69
2021/09/14 05:20:46;;;;;;;15.43;14.10;;;;;;;21.07;54.57;95380.50;5032806;28;20046;-79
2021/09/14 05:23:16;;;;;;;12.80;11.77;;;;;;;21.15;54.48;95379.47;5040603;28;20050;-70
2021/09/14 05:25:44;;;;;;;12.82;11.52;;;;;;;21.35;54.53;95387.47;5040093;28;20026;-66
2021/09/14 05:28:12;;;;;;;13.23;11.68;;;;;;;21.35;54.49;95385.56;5028575;28;20495;-86
2021/09/14 05:30:38;;;;;;;12.30;11.18;;;;;;;21.43;54.22;95387.19;5027864;28;20046;-76
2021/09/14 05:33:03;;;;;;;14.85;12.32;;;;;;;21.52;54.25;95398.53;5043972;28;20067;-75
2021/09/14 05:35:42;;;;;;;15.43;14.13;;;;;;;21.53;54.14;95391.97;5012023;28;20446;-65
2021/09/14 05:38:08;;;;;;;16.52;14.75;;;;;;;21.59;54.09;95400.53;5010391;28;20037;-66
2021/09/14 05:40:34;;;;;;;13.52;12.48;;;;;;;21.54;54.05;95388.09;5029489;28;20030;-67
2021/09/14 05:43:00;;;;;;;14.02;12.73;;;;;;;21.61;54.14;95389.34;5028149;28;20036;-66
2021/09/14 05:45:25;;;;;;;13.45;12.45;;;;;;;21.70;54.02;95387.94;5010285;28;20382;-67
2021/09/14 05:47:51;;;;;;;16.45;13.07;;;;;;;21.73;53.83;95381.75;5029432;28;20044;-82
2021/09/14 05:50:16;;;;;;;11.35;10.35;;;;;;;21.69;53.96;95361.97;5028378;28;20041;-78
2021/09/14 05:52:42;;;;;;;11.73;10.57;;;;;;;21.93;53.65;95387.00;5013540;28;20025;-76
2021/09/14 05:55:08;;;;;;;13.38;12.00;;;;;;;21.95;53.85;95379.28;5031933;28;20037;-75
2021/09/14 05:57:33;;;;;;;10.80;9.80;;;;;;;22.10;53.42;95391.03;5032320;28;20129;-71
2021/09/14 05:59:59;;;;;;;11.68;10.55;;;;;;;22.14;53.39;95379.13;5014209;28;20376;-73
2021/09/14 06:02:24;;;;;;;11.88;10.98;;;;;;;22.27;53.26;95393.97;5014654;28;20038;-81
2021/09/14 06:04:49;;;;;;;12.05;10.95;;;;;;;22.34;53.23;95387.84;5017057;28;20049;-83
2021/09/14 06:07:15;;;;;;;12.43;11.02;;;;;;;22.46;53.11;95392.97;5033047;28;20044;-78
2021/09/14 06:09:40;;;;;;;11.30;10.30;;;;;;;22.46;53.01;95387.53;5033465;28;20048;-79
2021/09/14 06:12:08;;;;;;;11.10;10.10;;;;;;;22.56;52.75;95388.78;5033575;28;20066;-75
2021/09/14 06:14:33;;;;;;;10.75;9.65;;;;;;;22.77;52.77;95402.53;5032419;28;20050;-80
2021/09/14 06:16:58;;;;;;;10.80;9.88;;;;;;;22.88;52.69;95404.53;5032631;28;20025;-78
2021/09/14 06:19:24;;;;;;;10.52;8.50;;;;;;;22.91;52.35;95395.69;5032461;28;20498;-74
2021/09/14 06:21:49;;;;;;;10.13;8.98;;;;;;;22.96;52.45;95398.03;5014521;28;20031;-77
2021/09/14 06:24:14;;;;;;;10.75;9.07;;;;;;;23.08;52.19;95401.25;5014540;28;20098;-76
2021/09/14 06:26:40;;;;;;;9.25;8.32;;;;;;;23.10;52.07;95387.28;5014785;28;20116;-76
2021/09/14 06:29:05;;;;;;;8.50;7.82;;;;;;;23.21;51.84;95392.78;5031983;28;20025;-76
2021/09/14 06:31:31;;;;;;;8.82;7.93;;;;;;;23.33;51.60;95400.59;5016291;28;20049;-76
2021/09/14 06:33:56;;;;;;;8.77;8.00;;;;;;;23.43;51.19;95401.81;5013649;28;20060;-75
2021/09/14 06:36:21;;;;;;;9.23;8.32;;;;;;;23.49;51.38;95403.00;5015235;28;20076;-76
2021/09/14 06:38:47;;;;;;;11.75;9.18;;;;;;;23.60;51.20;95395.72;5013562;28;20068;-77
2021/09/14 06:41:12;;;;;;;12.55;8.93;;;;;;;23.61;51.19;95386.41;5031826;28;20451;-75
2021/09/14 06:43:37;;;;;;;9.20;8.40;;;;;;;23.83;50.91;95407.06;5015666;28;20033;-75
2021/09/14 06:46:03;;;;;;;9.05;8.25;;;;;;;23.98;50.83;95407.91;5031930;28;20387;-77
2021/09/14 06:48:28;;;;;;;7.50;6.90;;;;;;;24.00;50.41;95402.06;5032232;28;20033;-73
2021/09/14 06:50:54;;;;;;;8.43;7.72;;;;;;;24.21;50.23;95412.22;5008392;28;20128;-74
2021/09/14 06:53:19;;;;;;;8.30;7.53;;;;;;;24.22;50.45;95405.66;5030698;28;20071;-73
2021/09/14 06:55:45;;;;;;;8.38;7.57;;;;;;;24.34;49.96;95410.72;5014992;28;20113;-74
2021/09/14 06:58:11;;;;;;;7.70;7.00;;;;;;;24.43;50.13;95405.72;5012699;28;20041;-73
2021/09/14 07:00:37;;;;;;;8.50;7.80;;;;;;;24.52;50.07;95405.34;5029435;28;20042;-75
2021/09/14 07:03:04;;;;;;;9.07;8.25;;;;;;;24.65;49.98;95411.94;5031094;28;20372;-72
2021/09/14 07:05:30;;;;;;;7.72;6.93;;;;;;;24.77;49.64;95413.47;5030102;28;20037;-74
2021/09/14 07:07:56;;;;;;;8.50;6.80;;;;;;;24.81;49.53;95400.66;5030561;28;20387;-72
2021/09/14 07:10:22;;;;;;;10.07;8.38;;;;;;;24.97;49.49;95401.03;5032180;28;20171;-73
2021/09/14 07:12:47;;;;;;;7.15;6.65;;;;;;;25.07;49.02;95404.94;5012692;28;20137;-74
2021/09/14 07:15:13;;;;;;;6.80;6.10;;;;;;;25.07;48.92;95400.28;5030663;28;20045;-73
2021/09/14 07:17:39;;;;;;;7.60;6.90;;;;;;;25.17;49.01;95404.16;5029934;28;20033;-73
2021/09/14 07:20:08;;;;;;;11.80;7.28;;;;;;;25.39;48.90;95411.13;5029200;28;20036;-73
2021/09/14 07:22:34;;;;;;;7.35;6.70;;;;;;;25.49;48.65;95408.75;5023989;28;20466;-74
2021/09/14 07:25:01;;;;;;;6.97;6.47;;;;;;;25.53;48.49;95396.69;5012342;28;20056;-73
2021/09/14 07:27:26;;;;;;;8.35;6.18;;;;;;;25.56;48.21;95386.97;5029959;28;20651;-73
2021/09/14 07:29:52;;;;;;;8.18;6.22;;;;;;;25.57;47.90;95407.56;5011480;28;20044;-74
2021/09/14 07:32:19;;;;;;;7.35;6.75;;;;;;;25.91;48.07;95405.91;5030101;28;20126;-73
2021/09/14 07:34:45;;;;;;;5.78;5.32;;;;;;;26.04;47.57;95408.19;5013447;28;20021;-74
2021/09/14 07:37:10;;;;;;;5.88;5.38;;;;;;;26.06;47.32;95393.00;5012110;28;20364;-73
2021/09/14 07:39:36;;;;;;;6.07;5.60;;;;;;;26.12;47.28;95380.50;5029705;28;20040;-73
2021/09/14 07:42:02;;;;;;;5.55;5.10;;;;;;;26.28;46.79;95410.00;5029864;28;20403;-73
2021/09/14 07:44:28;;;;;;;6.10;5.53;;;;;;;26.29;46.31;95400.66;5030006;28;20037;-73
2021/09/14 07:46:53;;;;;;;5.32;4.90;;;;;;;26.44;46.07;95413.03;5014173;28;20021;-74
2021/09/14 07:49:19;;;;;;;5.82;5.32;;;;;;;26.18;46.13;95411.63;5028969;28;20037;-74
2021/09/14 07:51:44;;;;;;;6.13;5.60;;;;;;;26.53;45.94;95414.56;5029543;28;20029;-74
2021/09/14 07:54:10;;;;;;;5.43;5.03;;;;;;;26.59;45.49;95396.59;5029696;28;20037;-73
2021/09/14 07:56:35;;;;;;;5.72;5.22;;;;;;;26.80;45.13;95418.25;5029446;28;20083;-74
2021/09/14 07:59:02;;;;;;;5.38;4.95;;;;;;;26.77;44.81;95410.06;5029499;28;20064;-74
2021/09/14 08:01:27;;;;;;;5.80;5.20;;;;;;;26.97;45.12;95419.28;5031857;28;20017;-74
2021/09/14 08:03:53;;;;;;;5.15;4.75;;;;;;;26.98;44.25;95398.22;5012485;28;20053;-75
2021/09/14 08:06:18;;;;;;;7.35;5.55;;;;;;;27.05;44.04;95420.00;5029634;28;20050;-77
2021/09/14 08:08:43;;;;;;;8.98;5.45;;;;;;;27.12;44.85;95418.00;5012110;28;20049;-76
2021/09/14 08:11:09;;;;;;;7.57;5.60;;;;;;;27.24;44.24;95411.28;5012164;28;20028;-76
2021/09/14 08:13:36;;;;;;;7.25;5.32;;;;;;;27.45;44.01;95430.19;5014410;28;20095;-76
2021/09/14 08:16:01;;;;;;;5.78;5.28;;;;;;;27.39;44.14;95409.94;5011258;28;20042;-74
2021/09/14 08:18:27;;;;;;;6.10;5.50;;;;;;;27.55;43.89;95414.09;5028851;28;20057;-75
2021/09/14 08:20:52;;;;;;;6.50;5.20;;;;;;;27.65;43.43;95415.91;5028656;28;20049;-75
2021/09/14 08:23:17;;;;;;;5.82;5.13;;;;;;;27.42;43.81;95420.03;5012202;28;20053;-76
2021/09/14 08:25:43;;;;;;;6.18;5.43;;;;;;;27.66;43.75;95401.84;5014341;28;20572;-76
2021/09/14 08:28:08;;;;;;;5.70;5.20;;;;;;;27.35;43.65;95424.81;5011013;28;20057;-76
2021/09/14 08:30:33;;;;;;;6.97;5.28;;;;;;;27.70;42.61;95431.88;5029368;28;20116;-76
2021/09/14 08:32:59;;;;;;;6.93;5.50;;;;;;;27.57;43.38;95417.16;5011942;28;20034;-77
2021/09/14 08:35:24;;;;;;;8.07;5.00;;;;;;;27.23;42.96;95390.63;5029176;28;20052;-75
2021/09/14 08:37:50;;;;;;;5.40;5.00;;;;;;;27.62;43.32;95401.09;5031538;28;20032;-76
2021/09/14 08:40:15;;;;;;;8.07;5.10;;;;;;;27.70;42.01;95407.28;5029352;28;20116;-76
2021/09/14 08:42:40;;;;;;;5.45;4.88;;;;;;;27.84;42.00;95396.19;5012175;28;20033;-76
2021/09/14 08:45:08;;;;;;;5.68;5.10;;;;;;;27.96;41.74;95408.56;5012253;28;20035;-77
2021/09/14 08:47:36;;;;;;;5.40;4.80;;;;;;;28.09;41.81;95389.63;5012150;28;20046;-75
2021/09/14 08:50:02;;;;;;;5.40;5.07;;;;;;;27.67;42.00;95391.69;5003950;28;20034;-76
2021/09/14 08:52:27;;;;;;;5.35;4.90;;;;;;;27.51;42.77;95427.78;5030434;28;20104;-76
2021/09/14 08:54:53;;;;;;;5.07;4.75;;;;;;;28.03;41.95;95415.88;5029492;28;20120;-76
2021/09/14 08:57:18;;;;;;;5.88;5.10;;;;;;;28.06;42.05;95406.88;5029422;28;20113;-76
2021/09/14 08:59:48;;;;;;;5.57;4.78;;;;;;;28.37;41.71;95426.78;5028720;28;20085;-76
2021/09/14 09:02:16;;;;;;;5.75;5.03;;;;;;;28.55;41.70;95423.78;5029422;28;20475;-76
2021/09/14 09:04:54;;;;;;;5.63;4.97;;;;;;;28.68;41.26;95409.13;5009547;28;20476;-75
2021/09/14 09:07:36;;;;;;;5.15;4.18;;;;;;;28.77;39.98;95411.34;5027866;28;20042;-77
2021/09/14 09:10:15;;;;;;;5.50;5.00;;;;;;;28.71;40.28;95385.59;5011414;28;20056;-77
2021/09/14 09:12:44;;;;;;;5.60;5.13;;;;;;;28.73;40.70;95414.13;5011812;28;20124;-76
2021/09/14 09:15:31;;;;;;;5.43;4.43;;;;;;;29.08;40.34;95414.78;5012067;28;20033;-77
2021/09/14 09:18:09;;;;;;;5.20;4.80;;;;;;;29.16;39.75;95416.19;5028960;28;20395;-77
2021/09/14 09:20:37;;;;;;;5.20;4.80;;;;;;;28.72;40.15;95392.66;5004275;28;20494;-76
2021/09/14 09:23:17;;;;;;;5.50;5.00;;;;;;;28.13;41.26;95395.81;5011618;28;20018;-77
2021/09/14 09:25:43;;;;;;;5.65;5.05;;;;;;;28.78;40.34;95417.59;5030539;28;20069;-77
2021/09/14 09:28:12;;;;;;;4.53;4.18;;;;;;;29.14;40.10;95412.34;5030242;28;20134;-75
2021/09/14 09:30:50;;;;;;;4.60;4.20;;;;;;;29.25;38.79;95415.66;5014791;28;20097;-77
2021/09/14 09:33:23;;;;;;;5.00;4.60;;;;;;;29.37;38.49;95417.00;5015413;28;20026;-77
2021/09/14 09:35:48;;;;;;;5.22;4.65;;;;;;;29.22;39.19;95414.50;5009297;28;20060;-77
2021/09/14 09:38:13;;;;;;;4.80;4.38;;;;;;;29.15;39.11;95370.03;5015148;28;20053;-77
2021/09/14 09:40:43;;;;;;;4.80;4.43;;;;;;;28.96;38.80;95391.47;5034710;28;20367;-77
2021/09/14 09:43:10;;;;;;;4.50;4.20;;;;;;;29.59;38.96;95414.69;5015721;28;20124;-77
2021/09/14 09:45:44;;;;;;;4.72;4.43;;;;;;;29.80;38.76;95405.28;5015791;28;20468;-77
2021/09/14 09:48:12;;;;;;;4.60;4.30;;;;;;;29.85;38.68;95400.06;5033176;28;20041;-77
2021/09/14 09:50:38;;;;;;;5.00;4.60;;;;;;;28.81;39.58;95394.84;5032493;28;20037;-77
2021/09/14 09:53:05;;;;;;;5.22;4.82;;;;;;;29.65;39.13;95402.81;5015286;28;20033;-77
2021/09/14 09:55:32;;;;;;;4.28;4.07;;;;;;;29.67;37.82;95389.44;5035282;28;20113;-77
2021/09/14 09:57:58;;;;;;;5.05;4.50;;;;;;;29.81;37.84;95404.84;5032758;28;20053;-77
2021/09/14 10:00:24;;;;;;;5.95;4.55;;;;;;;29.62;37.74;95397.38;5032361;28;20388;-76
2021/09/14 10:03:02;;;;;;;4.82;4.53;;;;;;;29.83;37.46;95402.44;5032948;28;20407;-79
2021/09/14 10:05:35;;;;;;;5.30;3.97;;;;;;;29.63;37.71;95390.69;5009973;28;20049;-77
2021/09/14 10:08:07;;;;;;;4.38;4.07;;;;;;;29.78;36.93;95383.75;5014771;28;20029;-75
2021/09/14 10:10:37;;;;;;;4.38;4.03;;;;;;;29.98;36.95;95389.97;5016678;28;20159;-76
2021/09/14 10:13:08;;;;;;;6.30;3.92;;;;;;;29.69;37.91;95386.28;5015099;28;20038;-76
2021/09/14 10:15:38;;;;;;;;;;;;;;;29.73;37.79;95403.44;5015447;28;20036;-77
2021/09/14 10:18:03;;;;;;;4.70;4.30;;;;;;;29.57;37.12;95354.78;5032587;28;20008;-77
2021/09/14 10:20:44;;;;;;;4.32;3.83;;;;;;;29.90;37.46;95388.59;5009295;28;20071;-76
2021/09/14 10:23:18;;;;;;;4.00;3.70;;;;;;;29.74;37.88;95359.16;5031939;28;20013;-76
2021/09/14 10:25:46;;;;;;;5.10;4.55;;;;;;;30.20;37.30;95384.84;5016213;28;20439;-76
2021/09/14 10:28:14;;;;;;;4.40;4.00;;;;;;;30.01;36.45;95369.94;5014307;28;20033;-76
2021/09/14 10:30:41;;;;;;;4.40;4.00;;;;;;;29.72;36.22;95369.00;5031625;28;20423;-77
2021/09/14 10:33:24;;;;;;;6.30;4.32;;;;;;;29.89;36.37;95345.13;5014533;28;20491;-76
2021/09/14 10:35:50;;;;;;;5.22;4.53;;;;;;;30.04;35.94;95387.50;5031425;28;20030;-76
2021/09/14 10:38:17;;;;;;;4.97;4.57;;;;;;;30.27;35.99;95381.94;5031146;28;20203;-77
2021/09/14 10:40:48;;;;;;;4.53;4.03;;;;;;;30.06;35.04;95368.66;5015838;28;20022;-76
2021/09/14 10:43:28;;;;;;;5.63;4.10;;;;;;;29.90;36.25;95376.84;5031822;28;20045;-76
2021/09/14 10:45:55;;;;;;;4.35;4.05;;;;;;;30.08;35.99;95379.97;5014007;28;20182;-77
2021/09/14 10:48:23;;;;;;;5.22;4.15;;;;;;;30.42;35.10;95378.88;5013799;28;20030;-77
2021/09/14 10:50:49;;;;;;;5.15;4.75;;;;;;;29.80;35.43;95351.19;5012849;28;20052;-76
2021/09/14 10:53:29;;;;;;;4.78;4.38;;;;;;;30.14;35.53;95352.84;5030714;28;20449;-74
2021/09/14 10:55:58;;;;;;;4.43;4.05;;;;;;;30.42;35.23;95360.44;5014919;28;20025;-74
2021/09/14 10:58:23;;;;;;;4.63;4.22;;;;;;;30.52;34.48;95375.91;5013157;28;20099;-74
2021/09/14 11:00:49;;;;;;;4.65;4.10;;;;;;;30.66;34.12;95374.78;5030286;28;20037;-75
2021/09/14 11:03:17;;;;;;;4.35;3.95;;;;;;;30.61;33.55;95371.75;5013363;28;20046;-75
2021/09/14 11:05:47;;;;;;;4.22;3.92;;;;;;;30.64;33.90;95368.16;5009675;28;20040;-74
2021/09/14 11:08:14;;;;;;;4.33;3.90;;;;;;;30.22;34.69;95357.00;5030486;28;20486;-74
2021/09/14 11:10:42;;;;;;;4.35;3.95;;;;;;;30.69;34.18;95365.69;5014604;28;20261;-75
2021/09/14 11:13:09;;;;;;;4.38;4.10;;;;;;;30.51;34.34;95370.84;5030658;28;20087;-75
2021/09/14 11:15:35;;;;;;;4.18;3.90;;;;;;;29.96;35.43;95367.69;5012700;28;20037;-75
2021/09/14 11:18:01;;;;;;;3.88;3.58;;;;;;;30.67;35.24;95364.56;5030481;28;21346;-75
2021/09/14 11:20:29;;;;;;;4.88;4.47;;;;;;;30.98;34.32;95367.75;5009457;28;20037;-75
2021/09/14 11:22:56;;;;;;;4.20;3.80;;;;;;;30.53;33.42;95339.00;5014417;28;20017;-75
2021/09/14 11:25:25;;;;;;;6.70;4.65;;;;;;;30.98;34.44;95367.75;5013079;28;20383;-75
2021/09/14 11:28:11;;;;;;;4.47;4.10;;;;;;;30.95;34.08;95352.91;5012832;28;20045;-75
2021/09/14 11:30:37;;;;;;;4.93;3.92;;;;;;;31.36;34.14;95356.97;5012068;28;20035;-75
2021/09/14 11:33:04;;;;;;;4.45;4.15;;;;;;;31.58;33.31;95371.69;5012644;28;20038;-75
2021/09/14 11:35:34;;;;;;;4.35;4.03;;;;;;;31.57;32.56;95372.88;5029511;28;20091;-74
2021/09/14 11:38:03;;;;;;;4.00;3.70;;;;;;;31.66;32.80;95375.00;5012142;28;20478;-74
2021/09/14 11:40:29;;;;;;;3.90;3.60;;;;;;;31.61;31.59;95364.53;5031653;28;20296;-75
2021/09/14 11:42:56;;;;;;;4.50;4.10;;;;;;;31.60;31.19;95365.75;5029922;28;20034;-76
2021/09/14 11:45:24;;;;;;;4.35;4.00;;;;;;;31.67;32.29;95378.53;5012584;28;20052;-75
2021/09/14 11:47:50;;;;;;;5.10;3.65;;;;;;;31.58;32.61;95360.69;5029852;28;20132;-75
2021/09/14 11:50:36;;;;;;;4.30;4.00;;;;;;;31.83;32.43;95375.72;5027703;28;20141;-75
2021/09/14 11:53:05;;;;;;;4.38;3.97;;;;;;;31.89;32.76;95376.75;5011797;28;20024;-75
2021/09/14 11:55:31;;;;;;;4.85;3.78;;;;;;;31.85;32.89;95356.81;5032194;28;20387;-75
2021/09/14 11:57:58;;;;;;;4.03;3.58;;;;;;;31.67;33.36;95359.28;5029612;28;20107;-74
2021/09/14 12:00:45;;;;;;;4.05;3.70;;;;;;;31.79;31.84;95375.06;5029596;28;20026;-75
2021/09/14 12:03:11;;;;;;;4.97;3.90;;;;;;;31.81;32.43;95375.41;5029994;28;20075;-75
2021/09/14 12:05:37;;;;;;;5.68;3.90;;;;;;;30.79;33.93;95356.44;5011598;28;20391;-74
2021/09/14 12:08:09;;;;;;;3.95;3.63;;;;;;;31.74;32.33;95372.84;5029352;28;20021;-74
2021/09/14 12:10:46;;;;;;;4.30;4.00;;;;;;;30.80;33.01;95355.22;5031122;28;20025;-74
2021/09/14 12:13:18;;;;;;;4.32;4.03;;;;;;;31.61;31.25;95364.53;5029306;28;20026;-74
2021/09/14 12:15:46;;;;;;;3.33;3.13;;;;;;;31.66;31.01;95354.97;5011762;28;20033;-75
2021/09/14 12:18:14;;;;;;;4.20;3.90;;;;;;;32.12;31.32;95358.41;5011318;28;20049;-75
2021/09/14 12:20:42;;;;;;;3.70;3.40;;;;;;;32.11;31.13;95335.63;5010704;28;20046;-76
2021/09/14 12:23:08;;;;;;;3.45;3.00;;;;;;;31.92;29.49;95339.31;5029605;28;20013;-75
2021/09/14 12:25:33;;;;;;;3.25;2.92;;;;;;;32.25;29.80;95346.19;5025899;28;20686;-74
2021/09/14 12:27:59;;;;;;;3.65;3.35;;;;;;;32.59;28.77;95353.00;5028478;28;20112;-76